Time;durP1;ratioP1;P1;durP2;ratioP2;P2;SDS_P1;SDS_P2;PMS_P1;PMS_P2;Temp;Humidity;BMP_temperature;BMP_pressure;BME280_temperature;BME280_humidity;BME280_pressure;Samples;Min_cycle;Max_cycle;Signal;HPM_P1;HPM_P2
2021/08/26 00:07:55;;;;;;;30.30;18.53;;;;;;;14.83;78.77;99402.09;4841724;29;20054;-88
2021/08/26 00:10:24;;;;;;;35.03;19.58;;;;;;;14.72;78.81;99380.50;4840052;29;20094;-88
2021/08/26 00:12:54;;;;;;;33.28;19.50;;;;;;;14.82;78.64;99383.97;4841219;29;20042;-87
2021/08/26 00:15:21;;;;;;;34.15;21.20;;;;;;;14.62;78.70;99358.91;4839698;29;20056;-88
2021/08/26 00:17:47;;;;;;;;;;;;;;;14.77;78.50;99374.81;4840722;29;20124;-88
2021/08/26 00:20:13;;;;;;;35.95;20.60;;;;;;;14.71;79.10;99378.91;4841562;29;19924;-87
2021/08/26 00:22:40;;;;;;;32.63;20.52;;;;;;;14.53;79.43;99353.50;4841024;29;20450;-87
2021/08/26 00:25:07;;;;;;;32.47;20.23;;;;;;;14.62;79.52;99378.19;4841226;29;20201;-88
2021/08/26 00:27:37;;;;;;;35.83;19.73;;;;;;;14.38;79.54;99342.31;4841117;29;20462;-87
2021/08/26 00:30:04;;;;;;;32.50;21.23;;;;;;;14.63;79.85;99387.22;4839609;29;20409;-87
2021/08/26 00:32:30;;;;;;;34.88;19.80;;;;;;;14.61;79.51;99389.53;4839394;29;20046;-88
2021/08/26 00:34:56;;;;;;;33.22;20.50;;;;;;;14.60;80.05;99380.44;4840278;29;20061;-88
2021/08/26 00:37:22;;;;;;;36.05;20.75;;;;;;;14.62;79.94;99383.69;4841034;29;20050;-88
2021/08/26 00:39:48;;;;;;;38.15;21.27;;;;;;;14.60;80.01;99368.66;4839396;29;20058;-88
2021/08/26 00:42:14;;;;;;;32.25;19.40;;;;;;;14.62;79.54;99369.13;4840830;29;20053;-88
2021/08/26 00:44:40;;;;;;;33.20;19.77;;;;;;;14.67;79.39;99361.47;4841044;29;20583;-88
2021/08/26 00:55:42;;;;;;;35.88;21.20;;;;;;;14.65;79.60;99366.50;5581073;23;20053;-94
2021/08/26 00:58:11;;;;;;;41.38;21.52;;;;;;;14.59;79.56;99356.84;4884634;29;20040;-86
2021/08/26 01:00:40;;;;;;;33.05;19.83;;;;;;;14.67;79.12;99371.66;4895065;29;20139;-94
2021/08/26 01:03:13;;;;;;;42.30;21.35;;;;;;;14.67;79.39;99364.22;4881248;29;20181;-82
2021/08/26 01:05:52;;;;;;;37.25;20.45;;;;;;;14.62;79.22;99366.38;4876225;29;20127;-95
2021/08/26 01:08:25;;;;;;;35.97;20.02;;;;;;;14.70;79.07;99379.22;4878715;29;20060;-94
2021/08/26 01:10:57;;;;;;;37.08;21.35;;;;;;;14.68;79.30;99370.53;4887454;29;20127;-83
2021/08/26 01:13:32;;;;;;;37.88;22.42;;;;;;;14.66;79.44;99367.31;4898696;29;20048;-95
2021/08/26 01:16:07;;;;;;;42.47;24.50;;;;;;;14.41;79.62;99330.63;4881012;29;20053;-95
2021/08/26 01:18:46;;;;;;;38.03;23.48;;;;;;;14.58;79.72;99349.75;4881267;29;20529;-88
2021/08/26 01:21:22;;;;;;;46.42;26.52;;;;;;;14.62;80.09;99353.41;4888651;29;20185;-94
2021/08/26 01:23:59;;;;;;;45.78;26.70;;;;;;;14.60;79.73;99354.91;4894770;29;20529;-95
2021/08/26 01:26:37;;;;;;;46.80;25.88;;;;;;;14.63;79.70;99354.22;4884451;29;20056;-82
2021/08/26 01:29:07;;;;;;;46.17;25.80;;;;;;;14.65;79.84;99355.50;4883427;29;20083;-94
2021/08/26 01:31:34;;;;;;;43.78;26.00;;;;;;;14.68;79.52;99360.31;4885296;29;20045;-84
2021/08/26 01:34:03;;;;;;;41.67;26.50;;;;;;;14.55;79.67;99344.91;4887731;29;20044;-83
2021/08/26 01:36:31;;;;;;;41.35;24.27;;;;;;;14.65;79.52;99358.25;4880726;29;20101;-83
2021/08/26 01:39:18;;;;;;;40.53;24.25;;;;;;;14.50;79.90;99326.69;4884050;29;20498;-83
2021/08/26 01:41:48;;;;;;;38.30;21.08;;;;;;;14.67;79.50;99342.22;4897636;29;20123;-84
2021/08/26 01:44:19;;;;;;;39.17;22.08;;;;;;;14.57;79.86;99328.88;4897458;29;20438;-84
2021/08/26 01:46:48;;;;;;;35.30;21.65;;;;;;;14.71;79.55;99350.59;4897568;29;20399;-83
2021/08/26 01:49:14;;;;;;;31.63;19.08;;;;;;;14.74;79.41;99353.47;4899352;29;20197;-82
2021/08/26 01:51:40;;;;;;;36.13;17.43;;;;;;;14.66;79.31;99317.78;4885701;29;20044;-85
2021/08/26 01:54:08;;;;;;;28.83;17.03;;;;;;;14.66;79.22;99313.06;4880898;29;20297;-90
2021/08/26 01:56:35;;;;;;;24.63;15.00;;;;;;;14.77;79.03;99340.97;4880067;29;20057;-89
2021/08/26 01:59:01;;;;;;;26.92;14.65;;;;;;;14.68;78.93;99323.75;4845660;29;20049;-89
2021/08/26 02:01:26;;;;;;;24.88;15.57;;;;;;;14.64;78.95;99306.31;4845483;29;20106;-88
2021/08/26 02:03:54;;;;;;;29.05;15.90;;;;;;;14.64;78.91;99315.38;4860768;29;20591;-88
2021/08/26 02:06:22;;;;;;;19.65;13.00;;;;;;;14.80;78.75;99343.84;4862596;29;20049;-87
2021/08/26 02:08:48;;;;;;;25.98;14.52;;;;;;;14.67;78.27;99309.19;4863838;29;20045;-91
2021/08/26 02:11:14;;;;;;;18.95;12.80;;;;;;;14.66;78.52;99313.06;4880898;29;20128;-92
2021/08/26 02:13:39;;;;;;;24.45;12.45;;;;;;;14.67;78.47;99313.88;4879780;29;20407;-92
2021/08/26 02:16:06;;;;;;;18.80;11.25;;;;;;;14.59;78.58;99307.31;4879369;29;20048;-89
2021/08/26 02:18:32;;;;;;;21.33;11.07;;;;;;;14.83;78.73;99339.59;4879219;29;20060;-90
2021/08/26 02:20:58;;;;;;;16.48;10.55;;;;;;;14.77;78.55;99324.47;4863820;29;20041;-89
2021/08/26 02:23:24;;;;;;;21.45;11.30;;;;;;;14.85;78.21;99345.56;4880065;29;20047;-89
2021/08/26 02:25:51;;;;;;;19.67;9.85;;;;;;;14.76;78.11;99317.34;4863564;29;20052;-90
2021/08/26 02:28:17;;;;;;;20.92;10.93;;;;;;;14.74;78.44;99320.44;4878773;29;20499;-90
2021/08/26 02:30:44;;;;;;;19.95;11.15;;;;;;;14.66;78.69;99307.56;4878718;29;20419;-89
2021/08/26 02:33:10;;;;;;;22.67;9.82;;;;;;;14.90;78.51;99342.63;4880005;29;20055;-82
2021/08/26 02:35:36;;;;;;;16.75;9.90;;;;;;;14.83;77.75;99327.78;4879816;29;20464;-88
2021/08/26 02:38:01;;;;;;;16.90;8.55;;;;;;;15.06;77.64;99358.44;4879337;29;20479;-90
2021/08/26 02:40:29;;;;;;;15.88;8.85;;;;;;;14.95;77.36;99349.84;4878719;29;20048;-88
2021/08/26 02:42:55;;;;;;;18.75;8.68;;;;;;;15.09;77.70;99360.53;4862884;29;20052;-90
2021/08/26 02:45:24;;;;;;;13.02;8.73;;;;;;;15.13;77.66;99354.00;4879726;29;20052;-90
2021/08/26 02:47:51;;;;;;;15.45;8.60;;;;;;;15.21;77.12;99366.84;4879242;29;20041;-90
2021/08/26 02:50:17;;;;;;;11.93;8.32;;;;;;;15.15;76.92;99340.69;4878749;29;20152;-88
2021/08/26 02:52:43;;;;;;;16.83;8.20;;;;;;;15.12;77.34;99346.06;4878787;29;20097;-88
2021/08/26 02:55:11;;;;;;;12.77;7.32;;;;;;;15.19;76.99;99347.09;4879942;29;20450;-88
2021/08/26 02:57:37;;;;;;;13.95;7.85;;;;;;;15.17;77.08;99341.16;4878158;29;20067;-89
2021/08/26 03:00:05;;;;;;;13.77;8.30;;;;;;;15.23;76.63;99353.56;4847235;29;20081;-90
2021/08/26 03:02:31;;;;;;;10.98;7.20;;;;;;;15.13;76.56;99351.25;4879167;29;20056;-89
2021/08/26 03:05:00;;;;;;;16.88;8.00;;;;;;;15.19;76.82;99358.13;4879085;29;20044;-89
2021/08/26 03:07:26;;;;;;;16.63;8.05;;;;;;;15.18;77.22;99359.28;4862670;29;20045;-88
2021/08/26 03:09:52;;;;;;;13.77;7.85;;;;;;;15.11;76.91;99339.78;4878828;29;20514;-89
2021/08/26 03:12:18;;;;;;;17.05;7.45;;;;;;;15.32;76.99;99360.91;4878112;29;20056;-88
2021/08/26 03:14:44;;;;;;;10.20;7.15;;;;;;;15.25;76.29;99356.75;4878903;29;20037;-87
2021/08/26 03:17:10;;;;;;;12.13;7.68;;;;;;;15.34;76.87;99370.44;4862498;29;20574;-89
2021/08/26 03:19:36;;;;;;;12.93;8.07;;;;;;;15.16;76.55;99330.47;4878048;29;20128;-89
2021/08/26 03:22:02;;;;;;;12.23;6.60;;;;;;;15.25;76.43;99350.44;4878031;29;20491;-89
2021/08/26 03:24:29;;;;;;;;;;;;;;;15.34;76.32;99353.91;4879552;29;20071;-91
2021/08/26 03:26:55;;;;;;;17.67;7.00;;;;;;;15.28;76.27;99344.25;4878880;29;19967;-89
2021/08/26 03:29:21;;;;;;;11.80;6.78;;;;;;;15.31;75.98;99356.53;4878540;29;20049;-90
2021/08/26 03:31:47;;;;;;;12.45;7.57;;;;;;;15.10;76.47;99310.66;4877336;29;20048;-89
2021/08/26 03:34:14;;;;;;;14.55;7.50;;;;;;;15.28;75.69;99339.56;4877443;29;20072;-89
2021/08/26 03:36:40;;;;;;;12.05;7.10;;;;;;;15.36;75.70;99345.28;4877654;29;20053;-90
2021/08/26 03:39:07;;;;;;;14.73;6.90;;;;;;;15.46;75.47;99355.84;4877334;29;20045;-89
2021/08/26 03:41:32;;;;;;;11.23;7.40;;;;;;;15.37;75.91;99341.41;4877570;29;20051;-90
2021/08/26 03:43:58;;;;;;;14.93;7.00;;;;;;;15.55;75.43;99372.28;4877480;29;20096;-89
2021/08/26 03:46:24;;;;;;;15.50;6.60;;;;;;;15.44;75.25;99347.13;4878660;29;20427;-88
2021/08/26 03:48:50;;;;;;;13.68;7.43;;;;;;;15.55;75.47;99358.50;4878550;29;20157;-88
2021/08/26 03:51:16;;;;;;;10.43;7.22;;;;;;;15.70;75.66;99372.41;4878360;29;20526;-88
2021/08/26 03:53:42;;;;;;;18.25;8.13;;;;;;;15.69;75.33;99370.00;4861784;29;20048;-89
2021/08/26 03:56:08;;;;;;;16.48;6.95;;;;;;;15.66;74.92;99370.66;4861362;29;20522;-89
2021/08/26 03:58:34;;;;;;;13.40;7.43;;;;;;;15.69;74.54;99362.56;4877152;29;20041;-89
2021/08/26 04:01:05;;;;;;;15.00;7.43;;;;;;;15.78;74.54;99375.38;4877026;29;20052;-90
2021/08/26 04:03:31;;;;;;;21.42;8.18;;;;;;;15.76;74.63;99370.25;4877322;29;20593;-89
2021/08/26 04:05:57;;;;;;;18.70;7.83;;;;;;;15.83;75.04;99366.91;4878168;29;20041;-89
2021/08/26 04:08:23;;;;;;;20.35;7.90;;;;;;;15.87;75.41;99359.53;4861389;29;20136;-90
2021/08/26 04:10:49;;;;;;;15.77;8.50;;;;;;;15.92;74.01;99359.28;4878258;29;20710;-89
2021/08/26 04:13:16;;;;;;;16.65;8.13;;;;;;;16.00;73.93;99371.34;4878062;29;20044;-89
2021/08/26 04:15:42;;;;;;;28.83;8.90;;;;;;;16.08;74.47;99386.94;4882790;29;20071;-90
2021/08/26 04:18:09;;;;;;;19.27;8.23;;;;;;;16.03;74.25;99376.16;4861669;29;20507;-91
2021/08/26 04:20:36;;;;;;;20.10;10.40;;;;;;;16.07;73.65;99379.81;4894210;29;20078;-88
2021/08/26 04:23:05;;;;;;;;;;;;;;;16.14;74.27;99383.59;4878685;29;20041;-88
2021/08/26 04:25:32;;;;;;;16.42;7.63;;;;;;;16.09;74.50;99374.75;4878111;29;19930;-89
2021/08/26 04:27:58;;;;;;;15.65;7.72;;;;;;;15.91;73.52;99344.69;4884725;29;20040;-88
2021/08/26 04:30:25;;;;;;;;;;;;;;;16.16;73.62;99378.53;4857867;29;20048;-87
2021/08/26 04:32:51;;;;;;;19.98;8.85;;;;;;;16.11;73.40;99361.44;4895120;29;19923;-93
2021/08/26 04:35:17;;;;;;;19.88;7.90;;;;;;;16.28;73.63;99376.91;4879640;29;20136;-80
2021/08/26 04:37:45;;;;;;;14.38;7.70;;;;;;;16.35;72.77;99380.66;4879720;29;20147;-79
2021/08/26 04:40:11;;;;;;;23.08;7.68;;;;;;;16.31;72.40;99365.16;4879018;29;20554;-91
2021/08/26 04:42:37;;;;;;;;;;;;;;;16.43;72.67;99376.16;4869634;29;20037;-89
2021/08/26 04:45:04;;;;;;;13.57;7.67;;;;;;;16.38;72.53;99365.38;4893896;29;21152;-86
2021/08/26 04:47:31;;;;;;;21.48;8.48;;;;;;;16.38;73.22;99352.38;4886247;29;20089;-93
2021/08/26 04:49:57;;;;;;;19.30;7.63;;;;;;;16.55;72.75;99372.53;4890345;29;20044;-86
2021/08/26 04:52:23;;;;;;;38.53;9.27;;;;;;;16.67;72.18;99389.84;4888577;29;20037;-87
2021/08/26 04:54:49;;;;;;;32.55;8.77;;;;;;;16.44;72.49;99361.19;4862762;29;20039;-88
2021/08/26 04:57:15;;;;;;;22.10;9.52;;;;;;;16.54;72.21;99377.25;4884721;29;20063;-87
2021/08/26 04:59:41;;;;;;;25.55;9.05;;;;;;;16.40;72.84;99352.84;4888088;29;20033;-84
2021/08/26 05:02:08;;;;;;;19.67;7.57;;;;;;;16.66;72.96;99371.69;4884562;29;20048;-89
2021/08/26 05:04:33;;;;;;;29.00;9.20;;;;;;;16.65;72.23;99364.56;4894460;29;20048;-95
2021/08/26 05:06:59;;;;;;;30.40;8.45;;;;;;;16.76;72.53;99358.56;4893864;29;20503;-90
2021/08/26 05:09:25;;;;;;;26.95;7.80;;;;;;;16.85;72.05;99371.06;4882770;29;20127;-85
2021/08/26 05:11:55;;;;;;;17.23;8.13;;;;;;;17.04;71.41;99389.69;4880048;29;20044;-85
2021/08/26 05:14:21;;;;;;;19.58;8.48;;;;;;;17.16;72.48;99390.78;4886723;29;20041;-87
2021/08/26 05:16:48;;;;;;;16.02;8.68;;;;;;;17.16;70.77;99388.81;4870681;29;20072;-87
2021/08/26 05:19:14;;;;;;;27.08;9.50;;;;;;;17.21;70.79;99385.78;4892852;29;20072;-86
2021/08/26 05:21:42;;;;;;;24.95;9.27;;;;;;;17.27;71.04;99397.38;4882872;29;20037;-84
2021/08/26 05:24:08;;;;;;;25.25;9.30;;;;;;;17.36;70.98;99398.00;4881443;29;20093;-80
2021/08/26 05:26:35;;;;;;;23.08;9.98;;;;;;;17.35;70.84;99388.09;4882518;29;20072;-90
2021/08/26 05:29:01;;;;;;;20.85;9.82;;;;;;;17.43;70.88;99367.78;4884266;29;20929;-88
2021/08/26 05:31:28;;;;;;;20.77;9.77;;;;;;;17.73;69.68;99394.97;4884021;29;20049;-87
2021/08/26 05:33:53;;;;;;;15.32;9.35;;;;;;;17.75;68.76;99387.13;4887913;29;20410;-89
2021/08/26 05:36:19;;;;;;;16.70;8.80;;;;;;;17.74;68.20;99388.25;4884180;29;20621;-96
2021/08/26 05:38:45;;;;;;;24.83;9.25;;;;;;;17.84;68.68;99413.41;4862810;29;20063;-89
2021/08/26 05:41:11;;;;;;;19.10;9.43;;;;;;;17.82;68.24;99407.47;4888686;29;20619;-87
2021/08/26 05:43:37;;;;;;;26.47;9.20;;;;;;;17.76;68.70;99414.44;4886586;29;20628;-86
2021/08/26 05:46:05;;;;;;;20.63;9.83;;;;;;;17.58;68.68;99388.28;4892716;29;20052;-85
2021/08/26 05:48:32;;;;;;;17.85;9.18;;;;;;;17.59;68.97;99387.94;4885116;29;20043;-89
2021/08/26 05:50:58;;;;;;;17.65;9.63;;;;;;;17.83;68.65;99409.06;4897432;29;20068;-94
2021/08/26 05:53:24;;;;;;;21.92;9.20;;;;;;;17.67;69.27;99377.03;4876987;29;20036;-91
2021/08/26 05:55:51;;;;;;;17.25;9.07;;;;;;;17.86;68.34;99387.38;4893296;29;20052;-87
2021/08/26 05:58:21;;;;;;;15.93;8.47;;;;;;;17.99;67.80;99413.78;4875451;29;20123;-96
2021/08/26 06:00:49;;;;;;;16.25;9.25;;;;;;;18.17;67.83;99408.63;4891403;29;20032;-91
2021/08/26 06:03:16;;;;;;;20.98;9.05;;;;;;;18.11;67.08;99374.09;4911624;29;20427;-81
2021/08/26 06:05:43;;;;;;;21.27;8.65;;;;;;;18.28;67.24;99406.91;4883775;29;20041;-87
2021/08/26 06:08:09;;;;;;;;;;;;;;;18.37;68.08;99410.25;4896057;29;20063;-86
2021/08/26 06:10:37;;;;;;;14.97;8.17;;;;;;;18.58;66.50;99418.22;4881855;29;20389;-82
2021/08/26 06:13:04;;;;;;;18.48;8.73;;;;;;;18.67;66.36;99418.00;4877961;29;20178;-81
2021/08/26 06:15:31;;;;;;;17.63;7.93;;;;;;;18.66;66.23;99408.88;4879877;29;20132;-84
2021/08/26 06:17:57;;;;;;;24.58;8.43;;;;;;;18.65;66.50;99417.56;4884377;29;20044;-88
2021/08/26 06:20:23;;;;;;;15.13;7.83;;;;;;;18.70;66.40;99426.38;4879443;29;20040;-83
2021/08/26 06:22:49;;;;;;;20.30;7.90;;;;;;;18.78;66.37;99425.38;4878604;29;20116;-80
2021/08/26 06:25:16;;;;;;;18.63;8.80;;;;;;;18.82;65.82;99427.44;4888027;29;20037;-78
2021/08/26 06:27:42;;;;;;;16.52;8.40;;;;;;;18.75;65.82;99417.81;4885253;29;20290;-79
2021/08/26 06:30:10;;;;;;;15.23;7.72;;;;;;;18.85;65.81;99432.25;4878328;29;20041;-78
2021/08/26 06:32:37;;;;;;;23.42;9.10;;;;;;;18.84;66.30;99434.22;4879291;29;20529;-89
2021/08/26 06:35:06;;;;;;;29.33;9.30;;;;;;;19.00;66.66;99443.22;4857133;29;20452;-79
2021/08/26 06:37:32;;;;;;;34.63;9.10;;;;;;;19.15;65.95;99433.22;4879067;29;20040;-81
2021/08/26 06:39:59;;;;;;;20.60;8.32;;;;;;;19.27;65.53;99426.72;4878458;29;20415;-78
2021/08/26 06:42:25;;;;;;;17.65;7.72;;;;;;;19.39;64.29;99425.72;4879386;29;20053;-91
2021/08/26 06:44:51;;;;;;;;;;;;;;;19.46;63.80;99431.38;4880326;29;20075;-90
2021/08/26 06:47:18;;;;;;;15.63;7.80;;;;;;;19.31;63.65;99422.03;4867467;29;20451;-89
2021/08/26 06:49:45;;;;;;;17.27;8.02;;;;;;;19.24;64.80;99430.22;4883734;29;20103;-87
2021/08/26 06:52:11;;;;;;;12.63;8.25;;;;;;;19.27;64.81;99439.75;4877768;29;20125;-87
2021/08/26 06:54:40;;;;;;;19.52;8.15;;;;;;;19.05;64.98;99413.63;4888807;29;20044;-90
2021/08/26 06:57:06;;;;;;;20.85;8.68;;;;;;;19.06;65.40;99435.41;4869315;29;20060;-88
2021/08/26 06:59:33;;;;;;;18.70;8.25;;;;;;;19.06;65.68;99442.91;4876309;29;20036;-85
2021/08/26 07:01:59;;;;;;;21.10;8.82;;;;;;;18.86;65.94;99434.63;4894628;29;20040;-85
2021/08/26 07:04:25;;;;;;;19.30;8.77;;;;;;;18.95;66.05;99451.03;4895244;29;20047;-85
2021/08/26 07:06:53;;;;;;;17.83;8.23;;;;;;;18.88;66.21;99434.28;4881691;29;20033;-87
2021/08/26 07:09:21;;;;;;;21.88;8.57;;;;;;;18.91;65.47;99434.34;4877779;29;20037;-85
2021/08/26 07:11:49;;;;;;;40.20;16.13;;;;;;;18.99;66.33;99452.69;4882754;29;20104;-86
2021/08/26 07:14:17;;;;;;;25.70;9.77;;;;;;;19.22;65.88;99455.50;4888286;29;20052;-86
2021/08/26 07:16:43;;;;;;;23.50;9.70;;;;;;;19.37;66.13;99447.44;4874501;29;20037;-85
2021/08/26 07:19:09;;;;;;;55.53;10.07;;;;;;;19.46;65.37;99454.34;4879692;29;20056;-84
2021/08/26 07:21:35;;;;;;;19.37;8.10;;;;;;;19.50;65.25;99465.50;4886749;29;20041;-85
2021/08/26 07:24:02;;;;;;;19.08;8.00;;;;;;;19.51;64.43;99467.13;4895016;29;20044;-84
2021/08/26 07:26:28;;;;;;;18.57;9.20;;;;;;;19.36;65.10;99454.97;4875310;29;20041;-83
2021/08/26 07:28:55;;;;;;;16.85;8.98;;;;;;;19.30;66.12;99448.13;4894813;29;20033;-86
2021/08/26 07:31:22;;;;;;;20.40;9.88;;;;;;;19.40;65.56;99466.94;4889291;29;20083;-85
2021/08/26 07:33:50;;;;;;;52.70;12.25;;;;;;;19.30;66.66;99456.44;4860957;29;20541;-87
2021/08/26 07:36:16;;;;;;;29.07;10.30;;;;;;;19.19;66.66;99439.63;4879967;29;20049;-85
2021/08/26 07:38:42;;;;;;;20.10;10.90;;;;;;;19.29;65.25;99449.28;4877929;29;20040;-86
2021/08/26 07:41:08;;;;;;;19.43;9.63;;;;;;;19.42;66.55;99478.44;4880850;29;20041;-87
2021/08/26 07:43:36;;;;;;;31.83;10.30;;;;;;;19.49;66.19;99473.03;4877756;29;20151;-87
2021/08/26 07:46:03;;;;;;;20.75;9.80;;;;;;;19.60;65.63;99489.88;4874026;29;20063;-94
2021/08/26 07:48:31;;;;;;;22.88;9.98;;;;;;;19.56;66.48;99486.22;4878899;29;20101;-87
2021/08/26 07:51:02;;;;;;;23.43;9.57;;;;;;;19.70;65.50;99492.06;4877650;29;20041;-93
2021/08/26 07:53:30;;;;;;;23.83;10.43;;;;;;;19.77;65.65;99482.22;4875585;29;20067;-85
2021/08/26 07:55:56;;;;;;;40.30;11.38;;;;;;;19.95;66.27;99492.47;4856840;29;20080;-84
2021/08/26 07:58:23;;;;;;;24.17;10.13;;;;;;;20.08;65.34;99476.41;4877556;29;20097;-91
2021/08/26 08:00:49;;;;;;;21.63;9.25;;;;;;;20.23;64.76;99483.00;4879612;29;20068;-85
2021/08/26 08:03:18;;;;;;;19.02;9.50;;;;;;;20.38;65.37;99495.09;4885973;29;20503;-92
2021/08/26 08:05:44;;;;;;;19.13;10.17;;;;;;;20.41;65.47;99489.59;4886833;29;20135;-96
2021/08/26 08:08:10;;;;;;;18.60;9.07;;;;;;;20.64;63.30;99489.53;4876630;29;20565;-84
2021/08/26 08:10:36;;;;;;;19.70;8.77;;;;;;;20.90;63.48;99499.00;4876968;29;20041;-85
2021/08/26 08:13:04;;;;;;;16.98;8.85;;;;;;;20.83;62.66;99496.16;4876777;29;20037;-96
2021/08/26 08:15:30;;;;;;;21.48;9.07;;;;;;;20.70;63.32;99495.59;4879093;29;20080;-81
2021/08/26 08:17:57;;;;;;;16.60;9.20;;;;;;;20.66;63.80;99503.03;4884226;29;20049;-90
2021/08/26 08:20:23;;;;;;;18.33;8.80;;;;;;;20.51;63.88;99499.28;4878667;29;20415;-85
2021/08/26 08:22:49;;;;;;;19.08;9.25;;;;;;;20.56;64.90;99496.19;4876811;29;20045;-83
2021/08/26 08:25:15;;;;;;;20.40;10.07;;;;;;;20.64;64.76;99491.53;4885463;29;20477;-82
2021/08/26 08:27:42;;;;;;;20.02;9.55;;;;;;;20.73;65.15;99492.06;4893829;29;20048;-86
2021/08/26 08:30:09;;;;;;;23.30;9.63;;;;;;;20.85;63.63;99500.13;4887771;29;20048;-92
2021/08/26 08:32:36;;;;;;;21.20;9.93;;;;;;;20.86;65.32;99485.06;4895404;29;20048;-91
2021/08/26 08:35:03;;;;;;;17.30;8.80;;;;;;;21.08;63.92;99502.00;4877178;29;20406;-86
2021/08/26 08:37:29;;;;;;;21.30;8.85;;;;;;;20.94;64.47;99476.81;4882828;29;20046;-90
2021/08/26 08:39:55;;;;;;;21.35;9.85;;;;;;;20.91;64.14;99466.47;4858335;29;20041;-86
2021/08/26 08:42:22;;;;;;;14.95;8.77;;;;;;;21.22;63.85;99504.13;4877254;29;20402;-86
2021/08/26 08:44:49;;;;;;;68.28;13.57;;;;;;;21.28;63.49;99488.72;4874364;29;20052;-85
2021/08/26 08:47:18;;;;;;;19.98;8.95;;;;;;;21.33;63.49;99485.59;4876669;29;20069;-86
2021/08/26 08:49:46;;;;;;;29.92;11.82;;;;;;;21.44;64.22;99502.44;4875233;29;20075;-92
2021/08/26 08:52:14;;;;;;;27.52;10.02;;;;;;;21.26;63.37;99472.44;4875584;29;20041;-88
2021/08/26 08:54:40;;;;;;;17.93;10.00;;;;;;;21.20;63.61;99479.50;4875153;29;20108;-85
2021/08/26 08:57:07;;;;;;;34.83;10.85;;;;;;;21.25;64.11;99490.28;4876169;29;20301;-87
2021/08/26 08:59:35;;;;;;;23.55;10.02;;;;;;;21.20;64.14;99490.63;4874532;29;20460;-88
2021/08/26 09:02:01;;;;;;;24.45;9.93;;;;;;;21.19;64.05;99494.59;4874665;29;20045;-86
2021/08/26 09:04:27;;;;;;;26.35;10.75;;;;;;;21.28;64.22;99495.06;4858952;29;20045;-91
2021/08/26 09:06:53;;;;;;;18.63;9.60;;;;;;;21.42;64.20;99496.44;4875543;29;20033;-87
2021/08/26 09:09:22;;;;;;;23.57;10.93;;;;;;;21.50;63.73;99509.25;4871840;29;20637;-88
2021/08/26 09:11:54;;;;;;;24.55;10.45;;;;;;;21.27;64.09;99470.44;4859334;29;20041;-90
2021/08/26 09:14:24;;;;;;;24.02;10.35;;;;;;;21.37;64.16;99496.78;4882872;29;20317;-90
2021/08/26 09:16:51;;;;;;;15.57;10.27;;;;;;;21.30;64.53;99511.41;4871589;29;20045;-91
2021/08/26 09:19:31;;;;;;;21.40;11.18;;;;;;;21.14;65.94;99502.47;4868581;29;20045;-91
2021/08/26 09:22:06;;;;;;;20.98;11.65;;;;;;;21.03;66.96;99496.78;4844832;29;20488;-93
2021/08/26 09:24:51;;;;;;;16.98;11.77;;;;;;;20.88;66.70;99504.13;4829232;29;20136;-90
2021/08/26 09:27:44;;;;;;;18.83;12.05;;;;;;;20.82;67.62;99520.34;4830908;29;20041;-91
2021/08/26 09:30:13;;;;;;;22.10;13.20;;;;;;;20.79;67.77;99514.72;4870292;29;20044;-93
2021/08/26 09:32:42;;;;;;;23.05;13.88;;;;;;;20.75;68.25;99505.56;4864311;29;20037;-90
2021/08/26 09:35:22;;;;;;;26.00;13.43;;;;;;;20.81;68.34;99515.97;4879700;29;20059;-95
2021/08/26 09:37:51;;;;;;;25.98;13.95;;;;;;;20.65;68.94;99502.25;4879646;29;20131;-93
2021/08/26 09:40:20;;;;;;;19.88;13.77;;;;;;;20.79;69.33;99520.28;4880581;29;20145;-89
2021/08/26 09:43:02;;;;;;;23.95;13.75;;;;;;;20.78;70.16;99530.59;4863615;29;20925;-88
2021/08/26 09:45:31;;;;;;;24.25;13.32;;;;;;;20.78;69.84;99529.81;4876986;29;20586;-89
2021/08/26 09:48:07;;;;;;;24.05;13.65;;;;;;;20.73;70.20;99511.50;4844297;29;20049;-89
2021/08/26 09:50:36;;;;;;;26.58;15.07;;;;;;;20.79;71.62;99529.41;4860653;29;20046;-89
2021/08/26 09:53:03;;;;;;;29.38;15.45;;;;;;;20.80;71.57;99519.91;4859480;29;20045;-92
2021/08/26 09:55:51;;;;;;;32.53;15.77;;;;;;;20.94;71.51;99532.41;4859289;29;20052;-89
2021/08/26 09:58:23;;;;;;;21.40;14.77;;;;;;;20.85;70.60;99508.47;4859401;29;20045;-89
2021/08/26 10:01:13;;;;;;;22.75;13.68;;;;;;;20.95;70.43;99523.66;4866447;29;20051;-93
2021/08/26 10:03:41;;;;;;;23.20;13.90;;;;;;;20.94;70.38;99519.31;4878413;29;20123;-95
2021/08/26 10:06:08;;;;;;;21.08;14.10;;;;;;;20.98;70.51;99513.78;4878404;29;20507;-93
2021/08/26 10:08:39;;;;;;;28.58;15.40;;;;;;;20.98;69.64;99511.00;4877426;29;20053;-95
2021/08/26 10:11:08;;;;;;;34.08;16.88;;;;;;;20.98;70.48;99522.13;4878187;29;20515;-92
2021/08/26 10:13:35;;;;;;;34.00;17.08;;;;;;;20.98;70.52;99536.81;4876869;29;20519;-89
2021/08/26 10:16:02;;;;;;;34.42;16.35;;;;;;;20.73;70.42;99505.13;4860741;29;20045;-88
2021/08/26 10:18:29;;;;;;;29.35;16.50;;;;;;;20.59;71.71;99487.09;4877887;29;20105;-87
2021/08/26 10:20:57;;;;;;;26.85;17.05;;;;;;;20.90;71.18;99524.03;4874903;29;20041;-83
2021/08/26 10:23:26;;;;;;;28.92;15.90;;;;;;;20.93;70.82;99522.47;4873985;29;20041;-84
2021/08/26 10:25:55;;;;;;;26.85;16.85;;;;;;;21.07;71.54;99534.56;4874049;29;20506;-83
2021/08/26 10:28:22;;;;;;;32.65;17.55;;;;;;;21.22;71.62;99531.94;4873605;29;20578;-84
2021/08/26 10:30:48;;;;;;;42.20;16.88;;;;;;;21.26;70.90;99524.47;4873727;29;20044;-82
2021/08/26 10:33:27;;;;;;;31.60;16.13;;;;;;;21.40;69.14;99527.41;4873037;29;20427;-84
2021/08/26 10:35:56;;;;;;;29.77;16.95;;;;;;;21.56;68.36;99539.13;4870095;29;20060;-84
2021/08/26 10:38:31;;;;;;;31.20;18.08;;;;;;;21.62;68.96;99533.19;4872946;29;20458;-82
2021/08/26 10:41:19;;;;;;;30.00;18.13;;;;;;;21.64;69.21;99516.94;4873273;29;20041;-83
2021/08/26 10:43:55;;;;;;;36.80;17.63;;;;;;;21.89;67.89;99539.44;4865678;29;20283;-83
2021/08/26 10:46:50;;;;;;;32.75;18.75;;;;;;;21.87;67.80;99531.47;4872742;29;20045;-83
2021/08/26 10:49:20;;;;;;;34.30;19.27;;;;;;;21.77;68.17;99518.25;4872322;29;20045;-83
2021/08/26 10:51:48;;;;;;;46.25;20.73;;;;;;;21.67;68.66;99513.38;4872467;29;20061;-84
2021/08/26 10:54:33;;;;;;;36.75;18.17;;;;;;;21.72;67.51;99524.16;4871844;29;20053;-83
2021/08/26 10:57:37;;;;;;;42.25;19.95;;;;;;;21.79;67.90;99536.16;4871371;29;20057;-83
2021/08/26 11:00:42;;;;;;;44.33;20.38;;;;;;;21.85;67.56;99536.59;4870494;29;20518;-85
2021/08/26 11:03:09;;;;;;;39.22;21.80;;;;;;;21.80;67.48;99532.19;4871383;29;20136;-86
2021/08/26 11:05:37;;;;;;;40.65;20.92;;;;;;;21.80;67.32;99534.19;4870124;29;20041;-83
2021/08/26 11:08:26;;;;;;;46.90;21.60;;;;;;;21.76;67.75;99536.94;4870671;29;20108;-83
2021/08/26 11:10:53;;;;;;;46.92;21.60;;;;;;;21.69;68.54;99534.09;4870903;29;20053;-78
2021/08/26 11:13:45;;;;;;;37.33;22.02;;;;;;;21.58;68.31;99536.75;4870161;29;20096;-76
2021/08/26 11:16:23;;;;;;;26.70;19.80;;;;;;;21.45;68.26;99526.28;4866240;29;20056;-76
2021/08/26 11:18:53;;;;;;;38.03;19.30;;;;;;;21.36;68.79;99529.38;4869618;29;20518;-77
2021/08/26 11:21:42;;;;;;;29.92;19.50;;;;;;;21.32;69.05;99534.88;4870331;29;20049;-86
2021/08/26 11:24:31;;;;;;;37.08;19.98;;;;;;;21.20;69.15;99526.78;4850496;29;20049;-75
2021/08/26 11:27:19;;;;;;;46.60;20.90;;;;;;;21.12;70.06;99527.84;4850712;29;20048;-75
2021/08/26 11:29:46;;;;;;;36.88;20.02;;;;;;;21.07;69.95;99530.97;4850549;29;20197;-75
2021/08/26 11:32:15;;;;;;;36.22;20.98;;;;;;;21.03;70.34;99530.94;4850210;29;20411;-77
2021/08/26 11:34:43;;;;;;;46.33;22.23;;;;;;;21.03;70.95;99533.72;4849728;29;20049;-89
2021/08/26 11:37:14;;;;;;;36.90;22.70;;;;;;;20.96;72.04;99530.03;4850253;29;20408;-75
2021/08/26 11:39:51;;;;;;;47.03;24.95;;;;;;;20.90;72.97;99529.56;4849231;29;20057;-87
2021/08/26 11:42:41;;;;;;;42.30;27.23;;;;;;;20.92;73.71;99529.97;4848309;29;20055;-87
2021/08/26 11:45:23;;;;;;;41.83;28.50;;;;;;;20.98;74.25;99531.25;4848062;29;20095;-88
2021/08/26 11:47:50;;;;;;;51.30;28.83;;;;;;;20.97;73.91;99535.22;4847551;29;20076;-88